Time;durP1;ratioP1;P1;durP2;ratioP2;P2;SDS_P1;SDS_P2;PMS_P1;PMS_P2;Temp;Humidity;BMP_temperature;BMP_pressure;BME280_temperature;BME280_humidity;BME280_pressure;Samples;Min_cycle;Max_cycle;Signal;HPM_P1;HPM_P2
2023/04/15 00:00:50;;;;;;;5.47;2.40;;;;;;;;;;4956347;29;20026;-64
2023/04/15 00:03:15;;;;;;;;;;;;;;;;;;4956658;28;20112;-67
2023/04/15 00:05:41;;;;;;;5.10;2.50;;;;;;;;;;4957817;28;19961;-66
2023/04/15 00:08:06;;;;;;;5.35;2.53;;;;;;;;;;4956559;29;20093;-64
2023/04/15 00:10:32;;;;;;;5.18;2.53;;;;;;;;;;4956012;29;20027;-65
2023/04/15 00:12:57;;;;;;;4.72;2.33;;;;;;;;;;4955908;29;20027;-65
2023/04/15 00:15:22;;;;;;;5.53;2.70;;;;;;;;;;4956030;29;20078;-64
2023/04/15 00:17:49;;;;;;;5.60;2.53;;;;;;;;;;4960011;28;20121;-66
2023/04/15 00:20:14;;;;;;;5.05;2.30;;;;;;;;;;4975526;28;20027;-66
2023/04/15 00:22:40;;;;;;;5.27;2.40;;;;;;;;;;4975060;28;20019;-66
2023/04/15 00:25:05;;;;;;;4.60;2.10;;;;;;;;;;4975123;28;20088;-66
2023/04/15 00:27:30;;;;;;;6.57;2.43;;;;;;;;;;4975013;28;20027;-66
2023/04/15 00:29:56;;;;;;;5.00;2.27;;;;;;;;;;4974021;28;20026;-66
2023/04/15 00:32:21;;;;;;;5.10;2.28;;;;;;;;;;4976271;28;20061;-64
2023/04/15 00:34:46;;;;;;;5.93;2.50;;;;;;;;;;4975833;28;20022;-65
2023/04/15 00:37:11;;;;;;;4.87;2.20;;;;;;;;;;4974860;28;20050;-65
2023/04/15 00:39:37;;;;;;;4.57;2.00;;;;;;;;;;4975236;28;20098;-66
2023/04/15 00:42:03;;;;;;;5.88;1.98;;;;;;;;;;4975286;28;20061;-67
2023/04/15 00:44:28;;;;;;;;;;;;;;;;;;4975211;28;20394;-64
2023/04/15 00:46:55;;;;;;;4.28;1.83;;;;;;;;;;4975111;28;20403;-66
2023/04/15 00:49:20;;;;;;;4.10;1.80;;;;;;;;;;4977709;28;20031;-67
2023/04/15 00:51:45;;;;;;;4.30;1.90;;;;;;;;;;4978836;28;20023;-65
2023/04/15 00:54:11;;;;;;;5.32;2.05;;;;;;;;;;4979093;28;20089;-66
2023/04/15 00:56:37;;;;;;;4.38;1.95;;;;;;;;;;4976722;28;20446;-66
2023/04/15 00:59:02;;;;;;;4.50;2.17;;;;;;;;;;4977270;28;20027;-64
2023/04/15 01:01:28;;;;;;;4.63;1.80;;;;;;;;;;4975700;28;20066;-63
2023/04/15 01:03:55;;;;;;;4.32;2.00;;;;;;;;;;4979754;28;20046;-65
2023/04/15 01:06:20;;;;;;;4.82;2.08;;;;;;;;;;4993902;28;20034;-68
2023/04/15 01:08:45;;;;;;;4.57;2.00;;;;;;;;;;4995789;28;20023;-67
2023/04/15 01:11:11;;;;;;;4.57;1.90;;;;;;;;;;4997106;28;20034;-67
2023/04/15 01:13:37;;;;;;;4.30;1.90;;;;;;;;;;4994833;28;20062;-67
2023/04/15 01:16:02;;;;;;;4.20;1.90;;;;;;;;;;4993034;28;20078;-71
2023/04/15 01:18:28;;;;;;;4.30;1.80;;;;;;;;;;4977095;28;20034;-65
2023/04/15 01:20:53;;;;;;;5.00;2.00;;;;;;;;;;4966034;28;20474;-64
2023/04/15 01:23:19;;;;;;;4.57;1.90;;;;;;;;;;4961085;29;20030;-64
2023/04/15 01:25:44;;;;;;;3.67;1.63;;;;;;;;;;4961256;29;20493;-64
2023/04/15 01:28:09;;;;;;;4.80;2.20;;;;;;;;;;4958619;29;20023;-65
2023/04/15 01:30:35;;;;;;;4.53;2.00;;;;;;;;;;4958208;29;20505;-66
2023/04/15 01:33:00;;;;;;;3.90;1.90;;;;;;;;;;4956528;28;20021;-65
2023/04/15 01:35:25;;;;;;;5.03;2.20;;;;;;;;;;4955783;29;20450;-65
2023/04/15 01:37:51;;;;;;;5.50;2.35;;;;;;;;;;4956082;29;20476;-66
2023/04/15 01:40:16;;;;;;;5.10;2.47;;;;;;;;;;4956400;29;20029;-68
2023/04/15 01:42:41;;;;;;;7.17;2.40;;;;;;;;;;4956120;28;20027;-66
2023/04/15 01:45:08;;;;;;;5.03;2.53;;;;;;;;;;4957952;28;20023;-65
2023/04/15 01:47:33;;;;;;;6.10;2.72;;;;;;;;;;4956133;29;20143;-65
2023/04/15 01:49:59;;;;;;;6.20;2.87;;;;;;;;;;4955761;29;20035;-67
2023/04/15 01:52:24;;;;;;;6.47;3.00;;;;;;;;;;4957674;29;20035;-64
2023/04/15 01:54:49;;;;;;;5.88;2.95;;;;;;;;;;4956325;29;20020;-66
2023/04/15 01:57:14;;;;;;;5.95;2.60;;;;;;;;;;4959201;28;20038;-66
2023/04/15 01:59:39;;;;;;;5.07;2.40;;;;;;;;;;4961898;28;20031;-65
2023/04/15 02:02:05;;;;;;;5.73;3.07;;;;;;;;;;4956006;28;20031;-66
2023/04/15 02:04:30;;;;;;;5.50;2.50;;;;;;;;;;4953662;28;20369;-64
2023/04/15 02:06:55;;;;;;;6.07;2.70;;;;;;;;;;4953777;29;20027;-66
2023/04/15 02:09:20;;;;;;;6.10;2.60;;;;;;;;;;4952824;29;20026;-65
2023/04/15 02:11:46;;;;;;;5.47;2.80;;;;;;;;;;4954504;29;20055;-67
2023/04/15 02:14:11;;;;;;;6.07;2.80;;;;;;;;;;4954630;29;20015;-65
2023/04/15 02:16:36;;;;;;;5.65;2.90;;;;;;;;;;4960858;28;20380;-68
2023/04/15 02:19:02;;;;;;;5.50;2.70;;;;;;;;;;4973759;28;20031;-66
2023/04/15 02:21:28;;;;;;;5.30;2.63;;;;;;;;;;4974732;28;20547;-67
2023/04/15 02:23:53;;;;;;;5.57;2.53;;;;;;;;;;4973160;28;20085;-65
2023/04/15 02:26:18;;;;;;;6.03;3.00;;;;;;;;;;4972748;28;20027;-68
2023/04/15 02:28:43;;;;;;;5.72;2.90;;;;;;;;;;4973397;28;20027;-67
2023/04/15 02:31:09;;;;;;;5.37;2.80;;;;;;;;;;4973074;28;20026;-65
2023/04/15 02:33:34;;;;;;;5.82;2.90;;;;;;;;;;4973268;28;20023;-64
2023/04/15 02:36:00;;;;;;;5.93;2.83;;;;;;;;;;4972470;28;20015;-64
2023/04/15 02:38:25;;;;;;;6.50;3.00;;;;;;;;;;4972458;28;20430;-66
2023/04/15 02:40:50;;;;;;;5.90;2.72;;;;;;;;;;4972824;28;20030;-66
2023/04/15 02:43:16;;;;;;;6.40;3.07;;;;;;;;;;4972507;28;20030;-65
2023/04/15 02:45:42;;;;;;;6.00;3.05;;;;;;;;;;4972841;28;20494;-66
2023/04/15 02:48:07;;;;;;;5.97;2.90;;;;;;;;;;4972111;28;20015;-65
2023/04/15 02:50:32;;;;;;;5.97;3.00;;;;;;;;;;4972459;28;20030;-66
2023/04/15 02:52:59;;;;;;;6.57;3.17;;;;;;;;;;4972417;28;20066;-64
2023/04/15 02:55:25;;;;;;;6.72;2.85;;;;;;;;;;4972460;28;20070;-64
2023/04/15 02:57:50;;;;;;;7.53;3.27;;;;;;;;;;4971860;28;20048;-63
2023/04/15 03:00:15;;;;;;;6.68;3.45;;;;;;;;;;4972544;28;20029;-64
2023/04/15 03:02:41;;;;;;;5.67;2.70;;;;;;;;;;4972381;28;20027;-67
2023/04/15 03:05:10;;;;;;;6.35;2.95;;;;;;;;;;4972973;28;20360;-66
2023/04/15 03:07:35;;;;;;;5.32;2.72;;;;;;;;;;4971952;28;20030;-63
2023/04/15 03:10:01;;;;;;;6.95;3.15;;;;;;;;;;4972403;28;20023;-65
2023/04/15 03:12:26;;;;;;;7.97;3.63;;;;;;;;;;4972751;28;20026;-65
2023/04/15 03:14:51;;;;;;;6.38;3.08;;;;;;;;;;4971678;28;20630;-66
2023/04/15 03:17:17;;;;;;;5.55;2.97;;;;;;;;;;4959789;28;20152;-66
2023/04/15 03:19:42;;;;;;;5.32;2.80;;;;;;;;;;4953578;29;20019;-64
2023/04/15 03:22:07;;;;;;;5.90;3.10;;;;;;;;;;4953406;29;20055;-66
2023/04/15 03:24:32;;;;;;;5.82;2.97;;;;;;;;;;4953228;29;20031;-65
2023/04/15 03:27:00;;;;;;;6.78;3.28;;;;;;;;;;4952698;29;20027;-64
2023/04/15 03:29:25;;;;;;;5.40;2.60;;;;;;;;;;4953702;29;20027;-66
2023/04/15 03:31:51;;;;;;;5.20;2.70;;;;;;;;;;4953703;29;20613;-67
2023/04/15 03:34:16;;;;;;;7.97;3.43;;;;;;;;;;4953324;28;20069;-64
2023/04/15 03:36:41;;;;;;;6.70;3.30;;;;;;;;;;4952498;28;21017;-65
2023/04/15 03:39:06;;;;;;;5.90;2.92;;;;;;;;;;4953412;29;20038;-66
2023/04/15 03:41:32;;;;;;;6.95;3.03;;;;;;;;;;4952274;29;20058;-65
2023/04/15 03:43:57;;;;;;;6.50;3.22;;;;;;;;;;4954401;29;20078;-65
2023/04/15 03:46:22;;;;;;;6.13;2.83;;;;;;;;;;4955796;29;20556;-65
2023/04/15 03:48:47;;;;;;;6.77;3.00;;;;;;;;;;4961816;28;20039;-66
2023/04/15 03:51:13;;;;;;;5.43;2.67;;;;;;;;;;4967550;29;20437;-65
2023/04/15 03:53:38;;;;;;;6.20;2.90;;;;;;;;;;4967823;29;20074;-67
2023/04/15 03:56:03;;;;;;;5.30;2.60;;;;;;;;;;4968864;29;20031;-68
2023/04/15 03:58:28;;;;;;;6.23;3.17;;;;;;;;;;4972712;29;20019;-68
2023/04/15 04:00:53;;;;;;;5.90;3.05;;;;;;;;;;4958087;29;20518;-66
2023/04/15 04:03:19;;;;;;;5.35;2.65;;;;;;;;;;4952982;29;20034;-64
2023/04/15 04:05:44;;;;;;;5.97;2.90;;;;;;;;;;4952870;29;20043;-64
2023/04/15 04:08:12;;;;;;;6.73;3.07;;;;;;;;;;4952022;29;20028;-66
2023/04/15 04:10:37;;;;;;;6.20;2.92;;;;;;;;;;4952845;28;20046;-65
2023/04/15 04:13:02;;;;;;;7.38;3.40;;;;;;;;;;4953006;29;20387;-64
2023/04/15 04:15:28;;;;;;;6.05;3.08;;;;;;;;;;4952696;29;20070;-65
2023/04/15 04:17:53;;;;;;;8.37;4.20;;;;;;;;;;4968789;28;20052;-67
2023/04/15 04:20:18;;;;;;;8.03;3.97;;;;;;;;;;4971660;28;20026;-65
2023/04/15 04:22:43;;;;;;;6.80;3.38;;;;;;;;;;4971897;28;20037;-64
2023/04/15 04:25:11;;;;;;;7.03;3.20;;;;;;;;;;4973443;28;20023;-66
2023/04/15 04:27:36;;;;;;;6.68;3.42;;;;;;;;;;4977640;28;20023;-71
2023/04/15 04:30:02;;;;;;;7.90;3.70;;;;;;;;;;4976442;28;20034;-66
2023/04/15 04:32:27;;;;;;;7.80;3.75;;;;;;;;;;4976816;28;20015;-63
2023/04/15 04:34:52;;;;;;;7.35;3.78;;;;;;;;;;4980179;28;20042;-67
2023/04/15 04:37:17;;;;;;;7.65;3.75;;;;;;;;;;4981875;28;20102;-64
2023/04/15 04:39:42;;;;;;;7.90;3.87;;;;;;;;;;4975998;28;20022;-64
2023/04/15 04:42:08;;;;;;;7.07;3.70;;;;;;;;;;4976100;28;20157;-66
2023/04/15 04:44:33;;;;;;;6.03;3.20;;;;;;;;;;4977186;28;20084;-64
2023/04/15 04:46:58;;;;;;;7.03;3.72;;;;;;;;;;4975168;28;20018;-65
2023/04/15 04:49:23;;;;;;;6.93;3.57;;;;;;;;;;4975369;28;20126;-64
2023/04/15 04:51:48;;;;;;;7.55;4.00;;;;;;;;;;4974990;28;20094;-65
2023/04/15 04:54:13;;;;;;;8.23;4.23;;;;;;;;;;4974886;28;20023;-63
2023/04/15 04:56:39;;;;;;;7.57;3.35;;;;;;;;;;4973890;28;20015;-65
2023/04/15 04:59:04;;;;;;;8.63;4.00;;;;;;;;;;4974610;28;20023;-65
2023/04/15 05:01:29;;;;;;;9.83;4.20;;;;;;;;;;4974869;28;20496;-64
2023/04/15 05:03:55;;;;;;;7.17;3.60;;;;;;;;;;4974835;28;20564;-66
2023/04/15 05:06:20;;;;;;;8.05;3.60;;;;;;;;;;4974751;28;20105;-64
2023/04/15 05:08:45;;;;;;;6.82;3.22;;;;;;;;;;4974345;28;20022;-65
2023/04/15 05:11:11;;;;;;;8.20;3.83;;;;;;;;;;4975586;28;20057;-64
2023/04/15 05:13:37;;;;;;;6.82;3.00;;;;;;;;;;4974596;28;20027;-66
2023/04/15 05:16:03;;;;;;;7.22;3.30;;;;;;;;;;4975207;28;20106;-66
2023/04/15 05:18:28;;;;;;;8.52;3.30;;;;;;;;;;4957276;28;20031;-65
2023/04/15 05:20:53;;;;;;;7.37;3.47;;;;;;;;;;4955999;29;20067;-65
2023/04/15 05:23:18;;;;;;;6.50;3.08;;;;;;;;;;4956748;29;20110;-66
2023/04/15 05:25:44;;;;;;;6.27;3.03;;;;;;;;;;4958179;28;20023;-65
2023/04/15 05:28:09;;;;;;;7.40;2.90;;;;;;;;;;4956760;28;20066;-65
2023/04/15 05:30:34;;;;;;;6.22;2.88;;;;;;;;;;4956555;28;20053;-64
2023/04/15 05:32:59;;;;;;;6.45;2.95;;;;;;;;;;4960185;29;20023;-65
2023/04/15 05:35:25;;;;;;;6.38;2.50;;;;;;;;;;4959648;28;20023;-66
2023/04/15 05:37:50;;;;;;;7.00;2.70;;;;;;;;;;4955587;28;20407;-65
2023/04/15 05:40:15;;;;;;;6.00;2.50;;;;;;;;;;4956032;28;20020;-66
2023/04/15 05:42:40;;;;;;;7.33;2.90;;;;;;;;;;4955859;28;20020;-64
2023/04/15 05:45:08;;;;;;;4.82;2.30;;;;;;;;;;4961184;29;20494;-64
2023/04/15 05:47:33;;;;;;;6.75;2.10;;;;;;;;;;4954857;29;20019;-65
2023/04/15 05:49:59;;;;;;;5.03;2.00;;;;;;;;;;4954084;28;20039;-65
2023/04/15 05:52:26;;;;;;;4.63;1.83;;;;;;;;;;4954719;29;20120;-66
2023/04/15 05:54:51;;;;;;;3.85;1.40;;;;;;;;;;4954911;29;20074;-65
2023/04/15 05:57:16;;;;;;;4.03;1.60;;;;;;;;;;4953942;28;20744;-65
2023/04/15 05:59:41;;;;;;;4.83;1.70;;;;;;;;;;4954369;29;20039;-68
2023/04/15 06:02:07;;;;;;;4.05;1.42;;;;;;;;;;4954448;29;20015;-65
2023/04/15 06:04:32;;;;;;;3.88;1.50;;;;;;;;;;4954173;28;20380;-65
2023/04/15 06:06:57;;;;;;;5.03;1.80;;;;;;;;;;4953606;29;20019;-63
2023/04/15 06:09:22;;;;;;;4.80;2.25;;;;;;;;;;4953842;29;20027;-64
2023/04/15 06:11:47;;;;;;;3.33;1.40;;;;;;;;;;4954110;29;20015;-66
2023/04/15 06:14:12;;;;;;;4.47;1.70;;;;;;;;;;4953960;29;20102;-65
2023/04/15 06:16:38;;;;;;;4.20;1.60;;;;;;;;;;4959893;28;20475;-66
2023/04/15 06:19:03;;;;;;;3.70;1.50;;;;;;;;;;4973186;28;20019;-65
2023/04/15 06:21:28;;;;;;;3.27;1.37;;;;;;;;;;4973026;28;20027;-66
2023/04/15 06:23:53;;;;;;;3.92;1.50;;;;;;;;;;4972926;28;20023;-65
2023/04/15 06:26:18;;;;;;;3.85;1.20;;;;;;;;;;4972558;28;20026;-65
2023/04/15 06:28:44;;;;;;;3.60;1.33;;;;;;;;;;4973081;28;20305;-64
2023/04/15 06:31:09;;;;;;;3.80;1.10;;;;;;;;;;4973297;28;20298;-66
2023/04/15 06:33:34;;;;;;;3.23;1.20;;;;;;;;;;4972886;28;20027;-67
2023/04/15 06:35:59;;;;;;;3.33;1.00;;;;;;;;;;4972697;28;20023;-65
2023/04/15 06:38:25;;;;;;;3.47;1.10;;;;;;;;;;4972879;28;20052;-66
2023/04/15 06:40:50;;;;;;;3.50;1.10;;;;;;;;;;4972816;28;20019;-66
2023/04/15 06:43:15;;;;;;;3.40;1.20;;;;;;;;;;4977071;28;20453;-65
2023/04/15 06:45:40;;;;;;;3.17;1.10;;;;;;;;;;4980576;28;20094;-68
2023/04/15 06:48:05;;;;;;;3.83;1.45;;;;;;;;;;4981362;28;20061;-66
2023/04/15 06:50:31;;;;;;;2.40;0.90;;;;;;;;;;4991574;28;20086;-68
2023/04/15 06:52:56;;;;;;;2.70;0.60;;;;;;;;;;4986126;28;20022;-65
2023/04/15 06:55:21;;;;;;;1.67;0.70;;;;;;;;;;4973988;28;20149;-65
2023/04/15 06:57:46;;;;;;;2.17;0.70;;;;;;;;;;4972671;28;20022;-67
2023/04/15 07:00:12;;;;;;;2.30;0.73;;;;;;;;;;4973902;28;20047;-64
2023/04/15 07:02:37;;;;;;;3.78;0.82;;;;;;;;;;4976477;28;20110;-65
2023/04/15 07:05:03;;;;;;;2.90;0.90;;;;;;;;;;4974314;28;20034;-65
2023/04/15 07:07:28;;;;;;;3.95;0.80;;;;;;;;;;4972450;28;20035;-65
2023/04/15 07:09:54;;;;;;;2.83;0.90;;;;;;;;;;4972832;28;20103;-65
2023/04/15 07:12:19;;;;;;;3.17;0.90;;;;;;;;;;4972924;28;20027;-65
2023/04/15 07:14:44;;;;;;;3.00;0.80;;;;;;;;;;4975921;28;20046;-65
2023/04/15 07:17:11;;;;;;;5.00;1.17;;;;;;;;;;4968314;28;20027;-66
2023/04/15 07:19:36;;;;;;;2.70;0.70;;;;;;;;;;4961675;28;20078;-65
2023/04/15 07:22:01;;;;;;;2.88;0.80;;;;;;;;;;4961142;28;20027;-65
2023/04/15 07:24:26;;;;;;;2.83;0.80;;;;;;;;;;4958788;28;20019;-66
2023/04/15 07:26:56;;;;;;;2.03;0.60;;;;;;;;;;4956866;29;20395;-65
2023/04/15 07:29:21;;;;;;;3.30;0.95;;;;;;;;;;4956949;29;20094;-65
2023/04/15 07:31:46;;;;;;;3.73;1.00;;;;;;;;;;4956844;29;20054;-65
2023/04/15 07:34:12;;;;;;;2.65;0.93;;;;;;;;;;4954774;29;20027;-65
2023/04/15 07:36:37;;;;;;;2.13;0.83;;;;;;;;;;4953142;29;20098;-64
2023/04/15 07:39:03;;;;;;;3.58;1.17;;;;;;;;;;4951840;29;20055;-65
2023/04/15 07:41:28;;;;;;;3.50;1.00;;;;;;;;;;4953218;29;20094;-64
2023/04/15 07:43:54;;;;;;;3.30;1.08;;;;;;;;;;4953407;29;20483;-64
2023/04/15 07:46:19;;;;;;;3.05;1.00;;;;;;;;;;4953236;29;20404;-64
2023/04/15 07:48:45;;;;;;;3.05;0.88;;;;;;;;;;4952978;28;20077;-63
2023/04/15 07:51:10;;;;;;;2.60;0.90;;;;;;;;;;4952372;29;20099;-64
2023/04/15 07:53:35;;;;;;;3.20;1.10;;;;;;;;;;4952590;28;20023;-63
2023/04/15 07:56:00;;;;;;;3.03;0.93;;;;;;;;;;4952746;29;20031;-64
2023/04/15 07:58:26;;;;;;;3.17;1.07;;;;;;;;;;4952149;28;20030;-65
2023/04/15 08:00:51;;;;;;;2.63;1.00;;;;;;;;;;4957893;28;20030;-65
2023/04/15 08:03:17;;;;;;;2.72;1.00;;;;;;;;;;4960517;29;20027;-69
2023/04/15 08:05:42;;;;;;;3.10;1.23;;;;;;;;;;4957703;29;20033;-66
2023/04/15 08:08:07;;;;;;;3.08;1.13;;;;;;;;;;4956251;29;20023;-65
2023/04/15 08:10:33;;;;;;;3.80;1.20;;;;;;;;;;4958438;29;20034;-64
2023/04/15 08:12:58;;;;;;;3.45;1.33;;;;;;;;;;4960041;29;20024;-67
2023/04/15 08:15:24;;;;;;;3.50;1.45;;;;;;;;;;4955544;29;20383;-63
2023/04/15 08:17:49;;;;;;;3.70;1.10;;;;;;;;;;4974676;28;20029;-66
2023/04/15 08:20:15;;;;;;;4.70;1.48;;;;;;;;;;4981022;28;20025;-65
2023/04/15 08:22:40;;;;;;;3.27;1.20;;;;;;;;;;4978708;28;20022;-64
2023/04/15 08:25:05;;;;;;;5.13;1.20;;;;;;;;;;4975781;28;20166;-63
2023/04/15 08:27:31;;;;;;;3.87;1.43;;;;;;;;;;4975418;28;20019;-64
2023/04/15 08:29:56;;;;;;;3.93;1.47;;;;;;;;;;4975552;28;21036;-64
2023/04/15 08:32:21;;;;;;;5.10;1.75;;;;;;;;;;4975233;28;20162;-64
2023/04/15 08:34:47;;;;;;;4.27;1.57;;;;;;;;;;4975349;28;20019;-68
2023/04/15 08:37:12;;;;;;;3.55;1.45;;;;;;;;;;4974536;28;20441;-65
2023/04/15 08:39:37;;;;;;;4.10;1.70;;;;;;;;;;4974990;28;20023;-65
2023/04/15 08:42:07;;;;;;;4.63;1.60;;;;;;;;;;4975149;28;20023;-67
2023/04/15 08:44:33;;;;;;;3.95;1.15;;;;;;;;;;4975321;28;20023;-64
2023/04/15 08:47:02;;;;;;;6.32;1.70;;;;;;;;;;4974792;28;20062;-64
2023/04/15 08:49:27;;;;;;;5.15;2.40;;;;;;;;;;4974448;28;20050;-66
2023/04/15 08:51:53;;;;;;;5.50;3.05;;;;;;;;;;4977178;28;20026;-68
2023/04/15 08:54:18;;;;;;;7.63;4.00;;;;;;;;;;4966680;28;20019;-64
2023/04/15 08:56:43;;;;;;;5.73;3.40;;;;;;;;;;4957991;29;20082;-64
2023/04/15 08:59:10;;;;;;;6.80;4.10;;;;;;;;;;4956821;29;20499;-68
2023/04/15 09:01:36;;;;;;;6.63;4.03;;;;;;;;;;4958303;28;20454;-64
2023/04/15 09:04:02;;;;;;;7.43;4.20;;;;;;;;;;4959816;28;20023;-68
2023/04/15 09:06:27;;;;;;;6.75;4.13;;;;;;;;;;4960069;28;20027;-69
2023/04/15 09:08:52;;;;;;;7.93;4.33;;;;;;;;;;4961323;29;20471;-64
2023/04/15 09:11:18;;;;;;;7.15;4.00;;;;;;;;;;4957246;28;20055;-66
2023/04/15 09:13:43;;;;;;;6.88;3.50;;;;;;;;;;4956559;28;20035;-66
2023/04/15 09:16:09;;;;;;;6.60;3.73;;;;;;;;;;4965014;28;20063;-72
2023/04/15 09:18:35;;;;;;;6.38;3.38;;;;;;;;;;4974811;28;20023;-64
2023/04/15 09:21:26;;;;;;;7.38;3.05;;;;;;;;;;4975696;28;20111;-65
2023/04/15 09:23:55;;;;;;;5.55;3.25;;;;;;;;;;4974840;28;20022;-65
2023/04/15 09:26:29;;;;;;;7.28;3.45;;;;;;;;;;4976352;28;20042;-65
2023/04/15 09:29:01;;;;;;;6.57;3.78;;;;;;;;;;4973574;28;20019;-64
2023/04/15 09:31:28;;;;;;;6.60;3.40;;;;;;;;;;4964270;28;20057;-65
2023/04/15 09:33:57;;;;;;;7.40;3.95;;;;;;;;;;4979842;28;20029;-68
2023/04/15 09:36:23;;;;;;;5.90;3.38;;;;;;;;;;4978833;28;20105;-67
2023/04/15 09:38:49;;;;;;;;;;;;;;;;;;4978066;28;20634;-65
2023/04/15 09:41:20;;;;;;;7.07;4.13;;;;;;;;;;4956752;28;20275;-67
2023/04/15 09:43:45;;;;;;;7.00;4.10;;;;;;;;;;4959496;28;20035;-64
2023/04/15 09:46:10;;;;;;;6.60;3.70;;;;;;;;;;4954035;28;20022;-65
2023/04/15 09:48:35;;;;;;;7.23;3.83;;;;;;;;;;4954686;28;20608;-67
2023/04/15 09:51:00;;;;;;;5.93;3.57;;;;;;;;;;4958095;28;20042;-66
2023/04/15 09:53:26;;;;;;;5.90;3.50;;;;;;;;;;4954889;28;20089;-68
2023/04/15 09:55:53;;;;;;;6.72;3.80;;;;;;;;;;4955059;28;20023;-65
2023/04/15 09:58:18;;;;;;;;;;;;;;;;;;4954456;28;20027;-66
2023/04/15 10:00:45;;;;;;;6.10;3.40;;;;;;;;;;4969765;28;19907;-65
2023/04/15 10:03:11;;;;;;;6.95;4.00;;;;;;;;;;4955580;28;20509;-65
2023/04/15 10:05:37;;;;;;;7.07;3.80;;;;;;;;;;4956107;28;20027;-67
2023/04/15 10:08:03;;;;;;;6.22;3.63;;;;;;;;;;4958112;28;20024;-68
2023/04/15 10:10:28;;;;;;;7.93;4.18;;;;;;;;;;4964158;28;20043;-68
2023/04/15 10:12:54;;;;;;;6.13;3.83;;;;;;;;;;4960457;28;20019;-66
2023/04/15 10:15:19;;;;;;;6.18;3.83;;;;;;;;;;4970211;28;20065;-65
2023/04/15 10:17:46;;;;;;;5.70;3.40;;;;;;;;;;4974772;28;20386;-65
2023/04/15 10:20:13;;;;;;;6.60;3.72;;;;;;;;;;4973247;28;20037;-65
2023/04/15 10:22:39;;;;;;;6.20;3.78;;;;;;;;;;4971597;28;20015;-69
2023/04/15 10:25:05;;;;;;;5.63;3.38;;;;;;;;;;4973002;28;20023;-67
2023/04/15 10:27:30;;;;;;;7.87;3.60;;;;;;;;;;4972786;28;20495;-66
2023/04/15 10:29:56;;;;;;;6.75;3.83;;;;;;;;;;4973858;28;20434;-66
2023/04/15 10:32:21;;;;;;;8.77;4.47;;;;;;;;;;4973021;28;20422;-65
2023/04/15 10:34:47;;;;;;;5.70;3.47;;;;;;;;;;4973258;28;20026;-65
2023/04/15 10:37:12;;;;;;;6.60;4.00;;;;;;;;;;4972700;28;20657;-65
2023/04/15 10:39:37;;;;;;;7.00;4.05;;;;;;;;;;4972676;28;20042;-66
2023/04/15 10:42:06;;;;;;;5.93;3.45;;;;;;;;;;4972649;28;20459;-67
2023/04/15 10:44:31;;;;;;;5.82;3.88;;;;;;;;;;4972419;28;20027;-67
2023/04/15 10:46:57;;;;;;;6.25;3.97;;;;;;;;;;4971806;28;20027;-69
2023/04/15 10:49:25;;;;;;;7.13;4.43;;;;;;;;;;4972347;28;20163;-65
2023/04/15 10:51:51;;;;;;;5.78;3.83;;;;;;;;;;4972402;28;20027;-65
2023/04/15 10:54:25;;;;;;;6.03;3.80;;;;;;;;;;4972119;28;20022;-71
2023/04/15 10:57:05;;;;;;;6.70;3.92;;;;;;;;;;4971832;28;20021;-69
2023/04/15 10:59:31;;;;;;;6.95;3.72;;;;;;;;;;4971868;28;20030;-66
2023/04/15 11:01:59;;;;;;;5.80;3.28;;;;;;;;;;4971908;28;20033;-64
2023/04/15 11:04:43;;;;;;;6.20;3.38;;;;;;;;;;4972235;28;20022;-66
2023/04/15 11:07:08;;;;;;;6.03;3.33;;;;;;;;;;4971968;28;20030;-66
2023/04/15 11:09:33;;;;;;;4.55;2.55;;;;;;;;;;4972448;28;20011;-68
2023/04/15 11:12:05;;;;;;;5.23;2.83;;;;;;;;;;4971920;28;20506;-65
2023/04/15 11:14:31;;;;;;;5.53;2.90;;;;;;;;;;4972166;28;20026;-64
2023/04/15 11:16:57;;;;;;;5.07;2.83;;;;;;;;;;4972041;28;20026;-74
2023/04/15 11:19:22;;;;;;;5.65;2.67;;;;;;;;;;4972280;28;20101;-66
2023/04/15 11:21:47;;;;;;;4.10;2.23;;;;;;;;;;4972338;28;20015;-66
2023/04/15 11:24:25;;;;;;;6.17;4.00;;;;;;;;;;4972164;28;20023;-66
2023/04/15 11:26:50;;;;;;;4.65;2.50;;;;;;;;;;4971680;28;20096;-65
2023/04/15 11:29:18;;;;;;;4.78;2.30;;;;;;;;;;4971953;28;20483;-66
2023/04/15 11:31:48;;;;;;;4.43;2.53;;;;;;;;;;4972021;28;20070;-65
2023/04/15 11:34:21;;;;;;;3.95;2.00;;;;;;;;;;4971648;28;20077;-64
2023/04/15 11:36:47;;;;;;;4.80;2.35;;;;;;;;;;4974094;28;20019;-67
2023/04/15 11:39:12;;;;;;;4.72;2.10;;;;;;;;;;4976015;28;20493;-67
2023/04/15 11:41:37;;;;;;;5.78;2.80;;;;;;;;;;4975733;28;20021;-66
2023/04/15 11:44:02;;;;;;;3.75;1.73;;;;;;;;;;4975461;28;20042;-65
2023/04/15 11:46:28;;;;;;;4.80;1.85;;;;;;;;;;4975242;28;20042;-66
2023/04/15 11:48:53;;;;;;;3.50;1.55;;;;;;;;;;4975157;28;20030;-65
2023/04/15 11:51:20;;;;;;;4.55;1.73;;;;;;;;;;4975160;28;20023;-66
2023/04/15 11:53:48;;;;;;;5.03;1.80;;;;;;;;;;4975290;28;20070;-65
2023/04/15 11:56:16;;;;;;;3.63;1.80;;;;;;;;;;4975115;28;20018;-65
2023/04/15 11:58:42;;;;;;;4.32;1.80;;;;;;;;;;4975415;28;20402;-65
2023/04/15 12:01:07;;;;;;;3.58;1.60;;;;;;;;;;4975511;28;20015;-65
2023/04/15 12:03:36;;;;;;;4.20;1.87;;;;;;;;;;4975529;28;20114;-68
2023/04/15 12:06:03;;;;;;;3.90;1.67;;;;;;;;;;4976012;28;20577;-64
2023/04/15 12:08:47;;;;;;;3.60;1.50;;;;;;;;;;4976510;28;20033;-65
2023/04/15 12:11:12;;;;;;;5.43;1.70;;;;;;;;;;4976470;28;20034;-67
2023/04/15 12:13:37;;;;;;;4.30;1.60;;;;;;;;;;4978747;28;20031;-68
2023/04/15 12:16:02;;;;;;;3.80;1.60;;;;;;;;;;4962751;28;20032;-71
2023/04/15 12:18:28;;;;;;;2.97;1.17;;;;;;;;;;4961556;28;20034;-66
2023/04/15 12:20:53;;;;;;;3.97;1.50;;;;;;;;;;4963398;29;20048;-66
2023/04/15 12:23:19;;;;;;;3.92;1.40;;;;;;;;;;4959760;29;20365;-67
2023/04/15 12:25:50;;;;;;;3.95;1.58;;;;;;;;;;4956942;29;20031;-68
2023/04/15 12:28:16;;;;;;;3.85;1.40;;;;;;;;;;4955752;29;20042;-67
2023/04/15 12:30:53;;;;;;;3.63;1.30;;;;;;;;;;4956040;29;20023;-65
2023/04/15 12:33:18;;;;;;;3.55;1.40;;;;;;;;;;4956242;29;20031;-65
2023/04/15 12:35:43;;;;;;;3.22;1.30;;;;;;;;;;4955649;29;20050;-67
2023/04/15 12:38:09;;;;;;;4.85;1.65;;;;;;;;;;4954305;29;20070;-65
2023/04/15 12:40:34;;;;;;;3.42;1.73;;;;;;;;;;4955243;29;20146;-66
2023/04/15 12:42:59;;;;;;;4.15;2.10;;;;;;;;;;4954574;29;20039;-65
2023/04/15 12:45:25;;;;;;;4.25;1.85;;;;;;;;;;4954963;29;20035;-69
2023/04/15 12:47:50;;;;;;;3.90;1.60;;;;;;;;;;4954376;28;20166;-66
2023/04/15 12:50:16;;;;;;;4.80;2.00;;;;;;;;;;4955523;28;20053;-67
2023/04/15 12:52:41;;;;;;;4.25;1.80;;;;;;;;;;4955532;29;20439;-68
2023/04/15 12:55:07;;;;;;;3.88;1.70;;;;;;;;;;4955311;29;20019;-66
2023/04/15 12:57:32;;;;;;;3.83;1.53;;;;;;;;;;4954577;28;20027;-66
2023/04/15 12:59:57;;;;;;;4.63;1.70;;;;;;;;;;4956238;29;20442;-70
2023/04/15 13:02:24;;;;;;;3.80;1.83;;;;;;;;;;4955289;28;20038;-67
2023/04/15 13:04:49;;;;;;;4.15;1.90;;;;;;;;;;4955623;28;20090;-68
2023/04/15 13:07:14;;;;;;;4.70;2.05;;;;;;;;;;4954985;28;20019;-66
2023/04/15 13:09:39;;;;;;;4.07;1.67;;;;;;;;;;4954883;28;20042;-67
2023/04/15 13:12:05;;;;;;;4.00;1.73;;;;;;;;;;4955036;29;20362;-68
2023/04/15 13:14:30;;;;;;;4.97;2.00;;;;;;;;;;4959237;28;20030;-65
2023/04/15 13:16:55;;;;;;;4.50;2.00;;;;;;;;;;4974040;28;20612;-70
2023/04/15 13:19:21;;;;;;;4.23;1.80;;;;;;;;;;4974323;28;20026;-66
2023/04/15 13:21:46;;;;;;;4.97;2.07;;;;;;;;;;4974126;28;20422;-65
2023/04/15 13:24:11;;;;;;;4.00;1.70;;;;;;;;;;4974170;28;20475;-66
2023/04/15 13:26:36;;;;;;;3.83;1.70;;;;;;;;;;4973807;28;20027;-67
2023/04/15 13:29:01;;;;;;;4.63;1.70;;;;;;;;;;4974028;28;20022;-69
2023/04/15 13:31:27;;;;;;;4.10;1.60;;;;;;;;;;4974159;28;20022;-67
2023/04/15 13:33:52;;;;;;;4.13;1.80;;;;;;;;;;4976224;28;20467;-69
2023/04/15 13:36:17;;;;;;;4.57;2.13;;;;;;;;;;4974612;28;20034;-68
2023/04/15 13:38:42;;;;;;;4.17;1.80;;;;;;;;;;4980845;28;20394;-66
2023/04/15 13:41:07;;;;;;;4.05;1.70;;;;;;;;;;4974325;28;20026;-66
2023/04/15 13:43:33;;;;;;;4.13;1.80;;;;;;;;;;4973796;28;20058;-64
2023/04/15 13:45:58;;;;;;;4.30;1.60;;;;;;;;;;4973762;28;20034;-68
2023/04/15 13:48:23;;;;;;;3.63;1.50;;;;;;;;;;4972728;28;20034;-67
2023/04/15 13:50:48;;;;;;;3.58;1.50;;;;;;;;;;4973982;28;20023;-68
2023/04/15 13:53:14;;;;;;;4.35;1.80;;;;;;;;;;4968455;28;20019;-66
2023/04/15 13:55:42;;;;;;;4.75;1.65;;;;;;;;;;4970401;28;20023;-68
2023/04/15 13:58:07;;;;;;;3.70;1.63;;;;;;;;;;4967526;28;20031;-66
2023/04/15 14:00:32;;;;;;;3.80;1.65;;;;;;;;;;4971042;28;20020;-66
2023/04/15 14:02:57;;;;;;;3.17;1.47;;;;;;;;;;4965015;28;20528;-69
2023/04/15 14:05:23;;;;;;;3.50;1.42;;;;;;;;;;4971888;28;20038;-64
2023/04/15 14:07:48;;;;;;;3.47;1.40;;;;;;;;;;4963359;28;20079;-68
2023/04/15 14:10:13;;;;;;;4.95;1.58;;;;;;;;;;4963406;28;20023;-66
2023/04/15 14:12:38;;;;;;;5.03;1.50;;;;;;;;;;4968024;28;20022;-70
2023/04/15 14:15:04;;;;;;;4.85;1.42;;;;;;;;;;4972248;28;20537;-67
2023/04/15 14:17:29;;;;;;;3.40;1.42;;;;;;;;;;4970456;28;20031;-66
2023/04/15 14:19:54;;;;;;;3.60;1.50;;;;;;;;;;4970899;28;20038;-66
2023/04/15 14:22:19;;;;;;;4.18;1.70;;;;;;;;;;4971865;28;20058;-66
2023/04/15 14:24:44;;;;;;;4.47;1.83;;;;;;;;;;4972328;28;20031;-66
2023/04/15 14:27:11;;;;;;;4.70;1.77;;;;;;;;;;4972482;28;20022;-65
2023/04/15 14:29:36;;;;;;;;;;;;;;;;;;4970555;28;20109;-66
2023/04/15 14:32:01;;;;;;;3.65;1.60;;;;;;;;;;4972184;28;20081;-66
2023/04/15 14:34:26;;;;;;;3.60;1.40;;;;;;;;;;4970786;28;20109;-66
2023/04/15 14:36:55;;;;;;;3.37;1.50;;;;;;;;;;4969414;28;20014;-67